sensor_id;sensor_type;location;lat;lon;timestamp;P1;durP1;ratioP1;P2;durP2;ratioP2
29414;SDS011;20303;48.302;11.914;2023-03-17T00:00:46;4.00;;;2.40;;
29414;SDS011;20303;48.302;11.914;2023-03-17T00:10:48;7.05;;;2.88;;
29414;SDS011;20303;48.302;11.914;2023-03-17T00:20:49;4.45;;;2.50;;
29414;SDS011;20303;48.302;11.914;2023-03-17T00:30:52;4.72;;;2.50;;
29414;SDS011;20303;48.302;11.914;2023-03-17T00:40:58;4.50;;;2.55;;
29414;SDS011;20303;48.302;11.914;2023-03-17T00:50:59;3.05;;;2.20;;
29414;SDS011;20303;48.302;11.914;2023-03-17T01:01:00;3.85;;;2.05;;
29414;SDS011;20303;48.302;11.914;2023-03-17T01:11:01;4.57;;;2.28;;
29414;SDS011;20303;48.302;11.914;2023-03-17T01:21:02;3.90;;;2.25;;
29414;SDS011;20303;48.302;11.914;2023-03-17T01:31:04;2.42;;;1.90;;
29414;SDS011;20303;48.302;11.914;2023-03-17T01:41:05;2.80;;;1.98;;
29414;SDS011;20303;48.302;11.914;2023-03-17T01:51:06;2.95;;;1.90;;
29414;SDS011;20303;48.302;11.914;2023-03-17T02:01:10;3.08;;;1.90;;
29414;SDS011;20303;48.302;11.914;2023-03-17T02:11:13;3.40;;;2.03;;
29414;SDS011;20303;48.302;11.914;2023-03-17T02:21:26;2.75;;;1.70;;
29414;SDS011;20303;48.302;11.914;2023-03-17T02:31:33;3.67;;;1.98;;
29414;SDS011;20303;48.302;11.914;2023-03-17T02:41:34;3.05;;;1.98;;
29414;SDS011;20303;48.302;11.914;2023-03-17T02:51:36;2.50;;;1.55;;
29414;SDS011;20303;48.302;11.914;2023-03-17T03:01:37;2.47;;;1.70;;
29414;SDS011;20303;48.302;11.914;2023-03-17T03:11:38;2.40;;;1.60;;
29414;SDS011;20303;48.302;11.914;2023-03-17T03:21:40;3.83;;;1.60;;
29414;SDS011;20303;48.302;11.914;2023-03-17T03:31:41;2.05;;;1.70;;
29414;SDS011;20303;48.302;11.914;2023-03-17T03:41:42;2.30;;;1.70;;
29414;SDS011;20303;48.302;11.914;2023-03-17T03:51:43;2.53;;;1.58;;
29414;SDS011;20303;48.302;11.914;2023-03-17T04:01:44;2.65;;;1.80;;
29414;SDS011;20303;48.302;11.914;2023-03-17T04:11:45;2.80;;;1.60;;
29414;SDS011;20303;48.302;11.914;2023-03-17T04:21:46;2.85;;;1.50;;
29414;SDS011;20303;48.302;11.914;2023-03-17T04:31:48;2.85;;;1.42;;
29414;SDS011;20303;48.302;11.914;2023-03-17T04:41:49;2.22;;;1.50;;
29414;SDS011;20303;48.302;11.914;2023-03-17T04:51:50;2.58;;;1.40;;
29414;SDS011;20303;48.302;11.914;2023-03-17T05:01:51;2.13;;;1.50;;
29414;SDS011;20303;48.302;11.914;2023-03-17T05:11:52;2.45;;;1.60;;
29414;SDS011;20303;48.302;11.914;2023-03-17T05:21:53;1.80;;;1.50;;
29414;SDS011;20303;48.302;11.914;2023-03-17T05:31:55;1.70;;;1.35;;
29414;SDS011;20303;48.302;11.914;2023-03-17T05:41:56;2.15;;;1.40;;
29414;SDS011;20303;48.302;11.914;2023-03-17T05:51:57;2.20;;;1.30;;
29414;SDS011;20303;48.302;11.914;2023-03-17T06:01:58;1.95;;;1.30;;
29414;SDS011;20303;48.302;11.914;2023-03-17T06:11:59;2.53;;;1.33;;
29414;SDS011;20303;48.302;11.914;2023-03-17T06:22:00;2.17;;;1.38;;
29414;SDS011;20303;48.302;11.914;2023-03-17T06:32:01;2.92;;;1.45;;
29414;SDS011;20303;48.302;11.914;2023-03-17T06:42:03;1.92;;;1.23;;
29414;SDS011;20303;48.302;11.914;2023-03-17T06:52:04;1.83;;;1.42;;
29414;SDS011;20303;48.302;11.914;2023-03-17T07:02:08;2.00;;;1.40;;
29414;SDS011;20303;48.302;11.914;2023-03-17T07:12:10;2.10;;;1.27;;
29414;SDS011;20303;48.302;11.914;2023-03-17T07:22:11;2.55;;;1.30;;
29414;SDS011;20303;48.302;11.914;2023-03-17T07:32:12;2.30;;;1.42;;
29414;SDS011;20303;48.302;11.914;2023-03-17T07:42:14;2.38;;;1.30;;
29414;SDS011;20303;48.302;11.914;2023-03-17T07:52:16;1.85;;;1.42;;
29414;SDS011;20303;48.302;11.914;2023-03-17T08:02:18;2.25;;;1.40;;
29414;SDS011;20303;48.302;11.914;2023-03-17T08:12:19;1.90;;;1.40;;
29414;SDS011;20303;48.302;11.914;2023-03-17T08:22:21;3.60;;;1.30;;
29414;SDS011;20303;48.302;11.914;2023-03-17T08:32:22;2.17;;;1.60;;
29414;SDS011;20303;48.302;11.914;2023-03-17T08:42:23;2.80;;;1.30;;
29414;SDS011;20303;48.302;11.914;2023-03-17T08:52:25;2.67;;;1.63;;
29414;SDS011;20303;48.302;11.914;2023-03-17T09:02:26;1.98;;;1.60;;
29414;SDS011;20303;48.302;11.914;2023-03-17T09:12:28;1.80;;;1.27;;
29414;SDS011;20303;48.302;11.914;2023-03-17T09:22:29;3.67;;;1.70;;
29414;SDS011;20303;48.302;11.914;2023-03-17T09:32:30;5.43;;;1.75;;
29414;SDS011;20303;48.302;11.914;2023-03-17T09:42:35;4.70;;;1.80;;
29414;SDS011;20303;48.302;11.914;2023-03-17T09:52:43;3.38;;;1.80;;
29414;SDS011;20303;48.302;11.914;2023-03-17T10:02:45;3.60;;;1.80;;
29414;SDS011;20303;48.302;11.914;2023-03-17T10:12:58;4.38;;;2.05;;
29414;SDS011;20303;48.302;11.914;2023-03-17T10:23:14;3.70;;;1.80;;
29414;SDS011;20303;48.302;11.914;2023-03-17T10:33:19;4.05;;;1.90;;
29414;SDS011;20303;48.302;11.914;2023-03-17T10:43:22;2.63;;;1.80;;
29414;SDS011;20303;48.302;11.914;2023-03-17T10:53:28;3.30;;;1.90;;
29414;SDS011;20303;48.302;11.914;2023-03-17T11:03:42;2.95;;;1.70;;
29414;SDS011;20303;48.302;11.914;2023-03-17T11:13:43;2.42;;;1.70;;
29414;SDS011;20303;48.302;11.914;2023-03-17T11:44:29;2.92;;;1.70;;
29414;SDS011;20303;48.302;11.914;2023-03-17T11:54:54;2.10;;;1.60;;
29414;SDS011;20303;48.302;11.914;2023-03-17T12:05:21;3.88;;;1.58;;
29414;SDS011;20303;48.302;11.914;2023-03-17T12:15:27;2.95;;;1.70;;
29414;SDS011;20303;48.302;11.914;2023-03-17T12:25:55;2.30;;;1.38;;
29414;SDS011;20303;48.302;11.914;2023-03-17T12:36:05;3.47;;;1.30;;
29414;SDS011;20303;48.302;11.914;2023-03-17T12:56:46;3.38;;;1.48;;
29414;SDS011;20303;48.302;11.914;2023-03-17T13:07:02;2.03;;;1.30;;
29414;SDS011;20303;48.302;11.914;2023-03-17T13:37:39;18.08;;;9.50;;
29414;SDS011;20303;48.302;11.914;2023-03-17T13:47:46;17.50;;;8.93;;
29414;SDS011;20303;48.302;11.914;2023-03-17T14:08:16;16.20;;;8.60;;
29414;SDS011;20303;48.302;11.914;2023-03-17T14:28:32;15.07;;;8.50;;
29414;SDS011;20303;48.302;11.914;2023-03-17T14:38:34;13.27;;;7.78;;
29414;SDS011;20303;48.302;11.914;2023-03-17T14:48:36;15.50;;;7.63;;
29414;SDS011;20303;48.302;11.914;2023-03-17T14:58:41;15.20;;;7.93;;
29414;SDS011;20303;48.302;11.914;2023-03-17T15:08:43;17.05;;;7.80;;
29414;SDS011;20303;48.302;11.914;2023-03-17T15:18:45;13.25;;;6.97;;
29414;SDS011;20303;48.302;11.914;2023-03-17T15:28:47;13.05;;;6.38;;
29414;SDS011;20303;48.302;11.914;2023-03-17T15:38:48;12.30;;;6.20;;
29414;SDS011;20303;48.302;11.914;2023-03-17T15:48:49;15.50;;;6.00;;
29414;SDS011;20303;48.302;11.914;2023-03-17T15:58:50;11.20;;;5.38;;
29414;SDS011;20303;48.302;11.914;2023-03-17T16:08:51;9.50;;;4.80;;
29414;SDS011;20303;48.302;11.914;2023-03-17T16:18:52;8.13;;;4.45;;
29414;SDS011;20303;48.302;11.914;2023-03-17T16:28:53;8.10;;;4.32;;
29414;SDS011;20303;48.302;11.914;2023-03-17T16:38:55;8.38;;;4.07;;
29414;SDS011;20303;48.302;11.914;2023-03-17T16:48:56;8.15;;;4.00;;
29414;SDS011;20303;48.302;11.914;2023-03-17T16:58:57;7.90;;;3.30;;
29414;SDS011;20303;48.302;11.914;2023-03-17T17:08:58;5.53;;;3.35;;
29414;SDS011;20303;48.302;11.914;2023-03-17T17:18:59;6.68;;;3.53;;
29414;SDS011;20303;48.302;11.914;2023-03-17T17:29:01;7.15;;;3.22;;
29414;SDS011;20303;48.302;11.914;2023-03-17T17:39:02;6.35;;;2.85;;
29414;SDS011;20303;48.302;11.914;2023-03-17T17:49:03;7.63;;;2.70;;
29414;SDS011;20303;48.302;11.914;2023-03-17T17:59:04;9.13;;;3.30;;
29414;SDS011;20303;48.302;11.914;2023-03-17T18:09:05;10.15;;;3.05;;
29414;SDS011;20303;48.302;11.914;2023-03-17T18:19:08;10.70;;;4.68;;
29414;SDS011;20303;48.302;11.914;2023-03-17T18:29:10;72.45;;;54.55;;
29414;SDS011;20303;48.302;11.914;2023-03-17T18:39:12;95.22;;;69.80;;
29414;SDS011;20303;48.302;11.914;2023-03-17T18:49:14;100.03;;;76.35;;
29414;SDS011;20303;48.302;11.914;2023-03-17T18:59:15;108.90;;;82.35;;
29414;SDS011;20303;48.302;11.914;2023-03-17T19:09:16;107.82;;;82.07;;
29414;SDS011;20303;48.302;11.914;2023-03-17T19:19:17;104.55;;;78.97;;
29414;SDS011;20303;48.302;11.914;2023-03-17T19:29:18;97.03;;;75.53;;
29414;SDS011;20303;48.302;11.914;2023-03-17T19:39:20;91.55;;;69.97;;
29414;SDS011;20303;48.302;11.914;2023-03-17T19:49:21;86.25;;;62.97;;
29414;SDS011;20303;48.302;11.914;2023-03-17T19:59:22;79.22;;;59.35;;
29414;SDS011;20303;48.302;11.914;2023-03-17T20:09:24;49.67;;;34.85;;
29414;SDS011;20303;48.302;11.914;2023-03-17T20:19:26;56.00;;;41.88;;
29414;SDS011;20303;48.302;11.914;2023-03-17T20:29:28;54.88;;;40.28;;
29414;SDS011;20303;48.302;11.914;2023-03-17T20:39:30;52.92;;;40.42;;
29414;SDS011;20303;48.302;11.914;2023-03-17T20:49:31;52.22;;;36.30;;
29414;SDS011;20303;48.302;11.914;2023-03-17T20:59:32;52.40;;;37.88;;
29414;SDS011;20303;48.302;11.914;2023-03-17T21:09:35;44.03;;;32.15;;
29414;SDS011;20303;48.302;11.914;2023-03-17T21:19:36;42.50;;;29.90;;
29414;SDS011;20303;48.302;11.914;2023-03-17T21:29:38;35.90;;;28.92;;
29414;SDS011;20303;48.302;11.914;2023-03-17T21:39:39;39.72;;;28.58;;
29414;SDS011;20303;48.302;11.914;2023-03-17T21:49:40;36.10;;;27.55;;
29414;SDS011;20303;48.302;11.914;2023-03-17T21:59:41;33.88;;;25.13;;
29414;SDS011;20303;48.302;11.914;2023-03-17T22:09:42;46.03;;;23.48;;
29414;SDS011;20303;48.302;11.914;2023-03-17T22:19:44;43.13;;;22.65;;
29414;SDS011;20303;48.302;11.914;2023-03-17T22:29:47;36.88;;;18.65;;
29414;SDS011;20303;48.302;11.914;2023-03-17T22:39:48;29.58;;;17.90;;
29414;SDS011;20303;48.302;11.914;2023-03-17T22:49:49;31.67;;;17.73;;
29414;SDS011;20303;48.302;11.914;2023-03-17T22:59:50;43.13;;;18.30;;
29414;SDS011;20303;48.302;11.914;2023-03-17T23:09:52;42.95;;;17.17;;
29414;SDS011;20303;48.302;11.914;2023-03-17T23:19:53;34.17;;;13.45;;
29414;SDS011;20303;48.302;11.914;2023-03-17T23:29:54;36.33;;;16.40;;
29414;SDS011;20303;48.302;11.914;2023-03-17T23:39:56;38.55;;;16.55;;
29414;SDS011;20303;48.302;11.914;2023-03-17T23:49:57;38.33;;;14.00;;
29414;SDS011;20303;48.302;11.914;2023-03-17T23:59:58;56.50;;;13.27;;
